createdAt,value
2017-11-07T00:00:11.595Z,3.45
2017-11-07T00:01:21.575Z,3.45
2017-11-07T00:02:31.540Z,3.43
2017-11-07T00:03:41.179Z,3.4
2017-11-07T00:04:51.156Z,3.3
2017-11-07T00:06:01.452Z,3.3
2017-11-07T00:07:11.412Z,3.24
2017-11-07T00:08:21.390Z,3.29
2017-11-07T00:09:31.930Z,3.22
2017-11-07T00:10:41.924Z,3.3
2017-11-07T00:11:52.223Z,3.22
2017-11-07T00:13:02.512Z,3.27
2017-11-07T00:14:12.806Z,3.26
2017-11-07T00:15:22.456Z,3.3
2017-11-07T00:16:32.755Z,3.27
2017-11-07T00:17:42.711Z,3.29
2017-11-07T00:18:53.007Z,3.3
2017-11-07T00:20:03.308Z,3.24
2017-11-07T00:21:13.607Z,3.3
2017-11-07T00:22:23.902Z,3.33
2017-11-07T00:23:34.199Z,3.29
2017-11-07T00:24:44.497Z,3.33
2017-11-07T00:25:54.470Z,3.4
2017-11-07T00:27:04.433Z,3.34
2017-11-07T00:28:14.395Z,3.29
2017-11-07T00:29:24.689Z,3.34
2017-11-07T00:30:35.018Z,3.3
2017-11-07T00:31:44.678Z,3.27
2017-11-07T00:32:54.646Z,3.34
2017-11-07T00:34:04.932Z,3.29
2017-11-07T00:35:15.236Z,3.31
2017-11-07T00:36:25.520Z,3.31
2017-11-07T00:37:35.818Z,3.31
2017-11-07T00:38:46.106Z,3.31
2017-11-07T00:39:56.402Z,3.3
2017-11-07T00:41:06.700Z,3.31
2017-11-07T00:42:16.674Z,3.31
2017-11-07T00:43:26.958Z,3.33
2017-11-07T00:44:37.268Z,3.33
2017-11-07T00:45:47.551Z,3.46
2017-11-07T00:46:57.829Z,3.41
2017-11-07T00:48:07.797Z,3.48
2017-11-07T00:49:17.437Z,3.48
2017-11-07T00:50:27.723Z,3.52
2017-11-07T00:51:37.684Z,3.58
2017-11-07T00:52:47.653Z,3.59
2017-11-07T00:53:57.932Z,3.58
2017-11-07T00:55:08.235Z,3.63
2017-11-07T00:56:18.200Z,3.66
2017-11-07T00:57:28.491Z,3.73
2017-11-07T00:58:38.448Z,3.7
2017-11-07T00:59:48.447Z,3.7
2017-11-07T01:00:58.732Z,3.74
2017-11-07T01:02:08.696Z,3.66
2017-11-07T01:03:18.659Z,3.71
2017-11-07T01:04:28.943Z,3.67
2017-11-07T01:05:39.241Z,3.71
2017-11-07T01:06:49.202Z,3.7
2017-11-07T01:07:59.545Z,3.67
2017-11-07T01:09:09.830Z,3.84
2017-11-07T01:10:20.121Z,3.76
2017-11-07T01:11:30.089Z,3.82
2017-11-07T01:12:40.372Z,3.76
2017-11-07T01:13:50.681Z,3.73
2017-11-07T01:15:00.651Z,3.82
2017-11-07T01:16:10.617Z,3.85
2017-11-07T01:17:20.569Z,3.84
2017-11-07T01:18:30.207Z,3.82
2017-11-07T01:19:40.161Z,3.78
2017-11-07T01:20:50.504Z,3.84
2017-11-07T01:22:00.463Z,3.77
2017-11-07T01:23:10.417Z,3.76
2017-11-07T01:24:20.738Z,3.85
2017-11-07T01:25:30.698Z,3.73
2017-11-07T01:26:40.983Z,3.68
2017-11-07T01:27:50.605Z,3.71
2017-11-07T01:29:00.908Z,3.74
2017-11-07T01:30:10.872Z,3.66
2017-11-07T01:31:21.148Z,3.67
2017-11-07T01:32:31.123Z,3.73
2017-11-07T01:33:41.418Z,3.66
2017-11-07T01:34:51.718Z,3.68
2017-11-07T01:36:02.023Z,3.7
2017-11-07T01:37:12.306Z,3.7
2017-11-07T01:38:22.281Z,3.7
2017-11-07T01:39:32.574Z,3.67
2017-11-07T01:40:42.869Z,3.67
2017-11-07T01:41:52.832Z,3.67
2017-11-07T01:43:03.156Z,3.68
2017-11-07T01:44:12.804Z,3.7
2017-11-07T01:45:23.098Z,3.66
2017-11-07T01:46:33.087Z,3.73
2017-11-07T01:47:43.385Z,3.68
2017-11-07T01:48:53.670Z,3.73
2017-11-07T01:50:03.630Z,3.71
2017-11-07T01:51:13.922Z,3.71
2017-11-07T01:52:24.223Z,3.68
2017-11-07T01:53:34.186Z,3.66
2017-11-07T01:54:44.483Z,3.7
2017-11-07T01:55:54.123Z,3.7
2017-11-07T01:57:04.441Z,3.71
2017-11-07T01:58:14.733Z,3.68
2017-11-07T01:59:25.048Z,3.68
2017-11-07T02:00:35.013Z,3.74
2017-11-07T02:01:45.305Z,3.71
2017-11-07T02:02:55.608Z,3.66
2017-11-07T02:04:05.898Z,3.71
2017-11-07T02:05:16.194Z,3.77
2017-11-07T02:06:26.485Z,3.7
2017-11-07T02:07:36.787Z,3.68
2017-11-07T02:08:47.089Z,3.68
2017-11-07T02:09:57.060Z,3.68
2017-11-07T02:11:07.376Z,3.61
2017-11-07T02:12:17.660Z,3.68
2017-11-07T02:13:27.958Z,3.68
2017-11-07T02:14:38.245Z,3.71
2017-11-07T02:15:48.532Z,3.67
2017-11-07T02:16:58.826Z,3.67
2017-11-07T02:18:09.116Z,3.68
2017-11-07T02:19:19.411Z,3.68
2017-11-07T02:20:29.699Z,3.7
2017-11-07T02:21:39.346Z,3.7
2017-11-07T02:22:49.648Z,3.68
2017-11-07T02:23:59.614Z,3.66
2017-11-07T02:25:09.913Z,3.59
2017-11-07T02:26:19.880Z,3.61
2017-11-07T02:27:30.166Z,3.56
2017-11-07T02:28:39.804Z,3.59
2017-11-07T02:29:50.132Z,3.61
2017-11-07T02:31:00.432Z,3.53
2017-11-07T02:32:10.410Z,3.52
2017-11-07T02:33:20.381Z,3.48
2017-11-07T02:34:30.676Z,3.52
2017-11-07T02:35:40.970Z,3.5
2017-11-07T02:36:51.285Z,3.52
2017-11-07T02:38:01.248Z,3.5
2017-11-07T02:39:11.204Z,3.49
2017-11-07T02:40:21.509Z,3.52
2017-11-07T02:41:31.804Z,3.46
2017-11-07T02:42:41.770Z,3.48
2017-11-07T02:43:52.062Z,3.45
2017-11-07T02:45:02.359Z,3.37
2017-11-07T02:46:12.349Z,3.41
2017-11-07T02:47:22.340Z,3.4
2017-11-07T02:48:32.641Z,3.41
2017-11-07T02:49:42.596Z,3.43
2017-11-07T02:50:52.898Z,3.37
2017-11-07T02:52:03.192Z,3.34
2017-11-07T02:53:13.481Z,3.4
2017-11-07T02:54:23.769Z,3.37
2017-11-07T02:55:33.737Z,3.31
2017-11-07T02:56:44.019Z,3.3
2017-11-07T02:57:53.675Z,3.29
2017-11-07T02:59:03.968Z,3.3
2017-11-07T03:00:13.901Z,3.36
2017-11-07T03:01:24.202Z,3.34
2017-11-07T03:02:33.836Z,3.36
2017-11-07T03:03:43.471Z,3.33
2017-11-07T03:04:53.777Z,3.34
2017-11-07T03:06:04.075Z,3.43
2017-11-07T03:07:14.371Z,3.36
2017-11-07T03:08:24.345Z,3.45
2017-11-07T03:09:34.367Z,3.36
2017-11-07T03:10:44.665Z,3.37
2017-11-07T03:11:54.957Z,3.37
2017-11-07T03:13:04.920Z,3.3
2017-11-07T03:14:15.222Z,3.33
2017-11-07T03:15:25.173Z,3.31
2017-11-07T03:16:35.482Z,3.3
2017-11-07T03:17:45.767Z,3.27
2017-11-07T03:18:55.738Z,3.21
2017-11-07T03:20:06.029Z,3.27
2017-11-07T03:21:16.314Z,3.29
2017-11-07T03:22:26.605Z,3.3
2017-11-07T03:23:36.903Z,3.29
2017-11-07T03:24:46.880Z,3.29
2017-11-07T03:25:57.177Z,3.24
2017-11-07T03:27:07.152Z,3.15
2017-11-07T03:28:17.437Z,3.16
2017-11-07T03:29:27.728Z,3.21
2017-11-07T03:30:38.277Z,3.18
2017-11-07T03:31:48.234Z,3.11
2017-11-07T03:32:58.542Z,3.24
2017-11-07T03:34:08.504Z,3.19
2017-11-07T03:35:18.782Z,3.08
2017-11-07T03:36:29.066Z,3.06
2017-11-07T03:37:39.366Z,3.08
2017-11-07T03:38:49.679Z,3.09
2017-11-07T03:39:59.981Z,3.08
2017-11-07T03:41:10.299Z,3.01
2017-11-07T03:42:20.606Z,3
2017-11-07T03:43:30.556Z,2.95
2017-11-07T03:44:40.848Z,2.93
2017-11-07T03:45:51.133Z,2.9
2017-11-07T03:47:01.428Z,2.82
2017-11-07T03:48:11.748Z,2.82
2017-11-07T03:49:22.038Z,2.79
2017-11-07T03:50:32.006Z,2.75
2017-11-07T03:51:42.295Z,2.77
2017-11-07T03:52:52.246Z,2.73
2017-11-07T03:54:02.532Z,2.79
2017-11-07T03:55:12.826Z,2.65
2017-11-07T03:56:23.108Z,2.62
2017-11-07T03:57:33.388Z,2.72
2017-11-07T03:58:43.682Z,2.7
2017-11-07T03:59:53.984Z,2.61
2017-11-07T04:01:04.276Z,2.61
2017-11-07T04:02:14.576Z,2.57
2017-11-07T04:03:24.892Z,2.59
2017-11-07T04:04:34.865Z,2.59
2017-11-07T04:05:45.149Z,2.54
2017-11-07T04:06:55.436Z,2.59
2017-11-07T04:08:05.738Z,2.61
2017-11-07T04:09:15.723Z,2.59
2017-11-07T04:10:25.690Z,2.55
2017-11-07T04:11:35.987Z,2.59
2017-11-07T04:12:46.275Z,2.57
2017-11-07T04:13:56.557Z,2.59
2017-11-07T04:15:06.850Z,2.59
2017-11-07T04:16:17.152Z,2.51
2017-11-07T04:17:27.435Z,2.51
2017-11-07T04:18:37.393Z,2.51
2017-11-07T04:19:47.353Z,2.46
2017-11-07T04:20:57.305Z,2.5
2017-11-07T04:22:07.596Z,2.4
2017-11-07T04:23:17.563Z,2.4
2017-11-07T04:24:27.533Z,2.39
2017-11-07T04:25:37.179Z,2.36
2017-11-07T04:26:47.466Z,2.37
2017-11-07T04:27:57.766Z,2.33
2017-11-07T04:29:07.399Z,2.32
2017-11-07T04:30:17.185Z,2.3
2017-11-07T04:31:27.137Z,2.39
2017-11-07T04:32:37.433Z,2.36
2017-11-07T04:33:47.727Z,2.32
2017-11-07T04:34:57.696Z,2.26
2017-11-07T04:36:07.978Z,2.3
2017-11-07T04:37:18.268Z,2.28
2017-11-07T04:38:28.576Z,2.25
2017-11-07T04:39:38.865Z,2.33
2017-11-07T04:40:48.828Z,2.22
2017-11-07T04:41:58.475Z,2.28
2017-11-07T04:43:08.763Z,2.12
2017-11-07T04:44:19.052Z,2.12
2017-11-07T04:45:29.340Z,2.07
2017-11-07T04:46:39.647Z,2.07
2017-11-07T04:47:49.951Z,2.03
2017-11-07T04:49:00.235Z,2.08
2017-11-07T04:50:10.528Z,1.98
2017-11-07T04:51:20.812Z,2.05
2017-11-07T04:52:30.786Z,2.04
2017-11-07T04:53:41.062Z,2.03
2017-11-07T04:54:51.339Z,2
2017-11-07T04:56:01.310Z,1.89
2017-11-07T04:57:11.294Z,1.93
2017-11-07T04:58:21.605Z,1.98
2017-11-07T04:59:31.562Z,1.97
2017-11-07T05:00:41.847Z,1.93
2017-11-07T05:01:52.142Z,1.93
2017-11-07T05:03:02.434Z,1.88
2017-11-07T05:04:12.387Z,1.86
2017-11-07T05:05:22.350Z,1.85
2017-11-07T05:06:32.647Z,1.85
2017-11-07T05:07:42.935Z,1.82
2017-11-07T05:08:53.215Z,1.78
2017-11-07T05:10:03.506Z,1.85
2017-11-07T05:11:13.802Z,1.81
2017-11-07T05:12:24.097Z,1.74
2017-11-07T05:13:34.407Z,1.74
2017-11-07T05:14:44.403Z,1.78
2017-11-07T05:15:54.690Z,1.81
2017-11-07T05:17:04.983Z,1.84
2017-11-07T05:18:15.300Z,1.79
2017-11-07T05:19:25.587Z,1.81
2017-11-07T05:20:35.561Z,1.81
2017-11-07T05:21:45.205Z,1.78
2017-11-07T05:22:55.495Z,1.78
2017-11-07T05:24:05.801Z,1.75
2017-11-07T05:25:15.767Z,1.78
2017-11-07T05:26:25.730Z,1.71
2017-11-07T05:27:36.025Z,1.67
2017-11-07T05:28:46.325Z,1.75
2017-11-07T05:29:56.640Z,1.71
2017-11-07T05:31:06.929Z,1.75
2017-11-07T05:32:17.223Z,1.64
2017-11-07T05:33:27.519Z,1.75
2017-11-07T05:34:37.178Z,1.75
2017-11-07T05:35:47.498Z,1.71
2017-11-07T05:36:57.789Z,1.7
2017-11-07T05:38:08.098Z,1.75
2017-11-07T05:39:18.438Z,1.71
2017-11-07T05:40:28.724Z,1.67
2017-11-07T05:41:38.363Z,1.6
2017-11-07T05:42:48.330Z,1.63
2017-11-07T05:43:58.617Z,1.58
2017-11-07T05:45:08.847Z,1.64
2017-11-07T05:46:19.140Z,1.63
2017-11-07T05:47:29.415Z,1.57
2017-11-07T05:48:39.780Z,1.58
2017-11-07T05:49:50.070Z,1.58
2017-11-07T05:51:00.348Z,1.57
2017-11-07T05:52:10.643Z,1.57
2017-11-07T05:53:20.931Z,1.52
2017-11-07T05:54:31.230Z,1.58
2017-11-07T05:55:41.519Z,1.53
2017-11-07T05:56:51.804Z,1.49
2017-11-07T05:58:02.098Z,1.53
2017-11-07T05:59:12.398Z,1.49
2017-11-07T06:00:22.347Z,1.45
2017-11-07T06:01:32.663Z,1.63
2017-11-07T06:02:42.952Z,1.58
2017-11-07T06:03:53.239Z,1.5
2017-11-07T06:05:03.535Z,1.5
2017-11-07T06:06:13.815Z,1.5
2017-11-07T06:07:24.116Z,1.53
2017-11-07T06:08:34.434Z,1.5
2017-11-07T06:09:44.751Z,1.46
2017-11-07T06:10:54.721Z,1.49
2017-11-07T06:12:05.015Z,1.46
2017-11-07T06:13:15.308Z,1.48
2017-11-07T06:14:25.607Z,1.48
2017-11-07T06:15:36.115Z,1.53
2017-11-07T06:16:46.391Z,1.56
2017-11-07T06:17:56.703Z,1.57
2017-11-07T06:19:07.020Z,1.53
2017-11-07T06:20:17.309Z,1.57
2017-11-07T06:21:26.939Z,1.56
2017-11-07T06:22:37.231Z,1.63
2017-11-07T06:23:47.201Z,1.63
2017-11-07T06:24:57.489Z,1.61
2017-11-07T06:26:07.487Z,1.66
2017-11-07T06:27:17.792Z,1.64
2017-11-07T06:28:28.102Z,1.71
2017-11-07T06:29:38.394Z,1.71
2017-11-07T06:30:48.687Z,1.7
2017-11-07T06:31:58.969Z,1.67
2017-11-07T06:33:09.263Z,1.79
2017-11-07T06:34:19.560Z,1.68
2017-11-07T06:35:29.527Z,1.85
2017-11-07T06:36:39.848Z,1.86
2017-11-07T06:37:49.821Z,1.85
2017-11-07T06:39:00.118Z,1.85
2017-11-07T06:40:10.417Z,1.81
2017-11-07T06:41:20.725Z,1.81
2017-11-07T06:42:31.012Z,1.85
2017-11-07T06:43:40.970Z,1.79
2017-11-07T06:44:50.946Z,1.86
2017-11-07T06:46:01.245Z,1.84
2017-11-07T06:47:11.224Z,1.86
2017-11-07T06:48:21.507Z,1.84
2017-11-07T06:49:30.821Z,1.86
2017-11-07T06:50:40.789Z,1.86
2017-11-07T06:51:50.772Z,1.81
2017-11-07T06:53:01.072Z,1.92
2017-11-07T06:54:11.060Z,1.89
2017-11-07T06:55:21.343Z,1.93
2017-11-07T06:56:31.630Z,2.01
2017-11-07T06:57:41.917Z,2.03
2017-11-07T06:58:51.564Z,2.01
2017-11-07T07:00:01.873Z,2.04
2017-11-07T07:01:12.168Z,2.01
2017-11-07T07:02:22.434Z,2.04
2017-11-07T07:03:32.045Z,1.98
2017-11-07T07:04:42.317Z,2
2017-11-07T07:05:52.252Z,2.15
2017-11-07T07:07:02.500Z,2.16
2017-11-07T07:08:12.766Z,2.15
2017-11-07T07:09:22.385Z,2.19
2017-11-07T07:10:32.634Z,2.32
2017-11-07T07:11:42.607Z,2.28
2017-11-07T07:12:52.596Z,2.28
2017-11-07T07:14:02.566Z,2.34
2017-11-07T07:15:12.873Z,2.33
2017-11-07T07:16:23.164Z,2.3
2017-11-07T07:17:33.457Z,2.34
2017-11-07T07:18:43.100Z,2.39
2017-11-07T07:19:53.406Z,2.39
2017-11-07T07:21:03.376Z,2.52
2017-11-07T07:22:13.673Z,2.44
2017-11-07T07:23:23.974Z,2.58
2017-11-07T07:24:34.309Z,2.7
2017-11-07T07:25:44.302Z,2.76
2017-11-07T07:26:54.601Z,2.73
2017-11-07T07:28:04.892Z,2.83
2017-11-07T07:29:15.178Z,2.85
2017-11-07T07:30:25.464Z,2.93
2017-11-07T07:31:35.763Z,2.94
2017-11-07T07:32:45.742Z,2.97
2017-11-07T07:33:56.035Z,2.95
2017-11-07T07:35:06.328Z,3.08
2017-11-07T07:36:15.960Z,3.11
2017-11-07T07:37:26.263Z,3.08
2017-11-07T07:38:35.921Z,3.21
2017-11-07T07:39:46.241Z,3.24
2017-11-07T07:40:56.563Z,3.33
2017-11-07T07:42:06.890Z,3.52
2017-11-07T07:43:17.218Z,3.82
2017-11-07T07:44:27.185Z,3.85
2017-11-07T07:45:37.210Z,4.2
2017-11-07T07:46:46.867Z,4.32
2017-11-07T07:47:57.181Z,4.6
2017-11-07T07:49:07.473Z,4.7
2017-11-07T07:50:17.778Z,5
2017-11-07T07:51:28.091Z,5.08
2017-11-07T07:52:38.072Z,5.41
2017-11-07T07:53:48.375Z,5.67
2017-11-07T07:54:58.729Z,5.79
2017-11-07T07:56:08.749Z,5.98
2017-11-07T07:57:19.061Z,6.1
2017-11-07T07:58:29.280Z,6.31
2017-11-07T07:59:39.536Z,6.44
2017-11-07T08:00:50.329Z,6.7
2017-11-07T08:02:00.649Z,6.96
2017-11-07T08:03:10.969Z,7.28
2017-11-07T08:04:21.256Z,7.39
2017-11-07T08:05:31.591Z,7.61
2017-11-07T08:06:41.579Z,7.87
2017-11-07T08:07:51.584Z,7.87
2017-11-07T08:09:01.569Z,7.93
2017-11-07T08:10:11.909Z,8.01
2017-11-07T08:11:22.220Z,8.09
2017-11-07T08:12:32.511Z,8.11
2017-11-07T08:13:42.806Z,8.14
2017-11-07T08:14:53.128Z,8.42
2017-11-07T08:16:03.105Z,8.36
2017-11-07T08:17:13.092Z,8.24
2017-11-07T08:18:23.089Z,8.23
2017-11-07T08:19:33.371Z,8.23
2017-11-07T08:20:43.344Z,8.17
2017-11-07T08:21:53.366Z,8.16
2017-11-07T08:23:03.344Z,8.27
2017-11-07T08:24:13.352Z,8.35
2017-11-07T08:25:23.670Z,8.36
2017-11-07T08:26:33.962Z,8.57
2017-11-07T08:27:43.942Z,8.66
2017-11-07T08:28:54.240Z,8.86
2017-11-07T08:30:04.221Z,8.95
2017-11-07T08:31:14.515Z,9.12
2017-11-07T08:32:24.845Z,9.26
2017-11-07T08:33:35.144Z,9.48
2017-11-07T08:34:45.467Z,9.72
2017-11-07T08:35:55.755Z,9.99
2017-11-07T08:37:06.082Z,10.1
2017-11-07T08:38:16.378Z,10.27
2017-11-07T08:39:26.682Z,10.31
2017-11-07T08:40:37.014Z,10.25
2017-11-07T08:41:47.313Z,10.38
2017-11-07T08:42:57.629Z,10.39
2017-11-07T08:44:07.601Z,10.45
2017-11-07T08:45:17.916Z,10.51
2017-11-07T08:46:28.230Z,10.42
2017-11-07T08:47:38.537Z,10.48
2017-11-07T08:48:48.849Z,10.49
2017-11-07T08:49:58.836Z,10.53
2017-11-07T08:51:09.148Z,10.49
2017-11-07T08:52:19.132Z,10.67
2017-11-07T08:53:29.426Z,10.87
2017-11-07T08:54:39.748Z,10.95
2017-11-07T08:55:49.433Z,10.98
2017-11-07T08:56:59.401Z,11.15
2017-11-07T08:58:09.712Z,11.4
2017-11-07T08:59:19.688Z,11.7
2017-11-07T09:00:29.337Z,11.85
2017-11-07T09:01:39.656Z,12.08
2017-11-07T09:02:49.631Z,12.11
2017-11-07T09:03:59.632Z,12.14
2017-11-07T09:05:09.602Z,12
2017-11-07T09:06:19.583Z,12.08
2017-11-07T09:07:29.902Z,12.17
2017-11-07T09:08:40.085Z,12.25
2017-11-07T09:09:50.389Z,12.28
2017-11-07T09:11:00.698Z,12.28
2017-11-07T09:12:10.664Z,12.43
2017-11-07T09:13:20.965Z,12.54
2017-11-07T09:14:30.966Z,12.48
2017-11-07T09:15:40.966Z,12.23
2017-11-07T09:16:50.978Z,12.23
2017-11-07T09:18:01.317Z,12.18
2017-11-07T09:19:11.642Z,11.96
2017-11-07T09:20:21.958Z,11.95
2017-11-07T09:21:31.934Z,12.43
2017-11-07T09:22:42.253Z,12.72
2017-11-07T09:23:52.236Z,12.93
2017-11-07T09:25:02.220Z,12.88
2017-11-07T09:26:12.748Z,12.95
2017-11-07T09:27:23.053Z,12.95
2017-11-07T09:28:33.368Z,13.13
2017-11-07T09:29:43.363Z,13.37
2017-11-07T09:30:53.670Z,13.16
2017-11-07T09:32:04.025Z,12.93
2017-11-07T09:33:14.320Z,12.76
2017-11-07T09:34:24.304Z,12.54
2017-11-07T09:35:34.278Z,12.57
2017-11-07T09:36:43.924Z,12.4
2017-11-07T09:37:54.246Z,12.28
2017-11-07T09:39:04.567Z,12.32
2017-11-07T09:40:14.535Z,12.32
2017-11-07T09:41:24.844Z,12.35
2017-11-07T09:42:35.146Z,12.23
2017-11-07T09:43:45.459Z,12.25
2017-11-07T09:44:55.641Z,12.23
2017-11-07T09:46:05.988Z,12.39
2017-11-07T09:47:15.639Z,12.54
2017-11-07T09:48:25.957Z,12.75
2017-11-07T09:49:36.293Z,12.94
2017-11-07T09:50:46.591Z,13.09
2017-11-07T09:51:56.602Z,13.3
2017-11-07T09:53:06.903Z,13.45
2017-11-07T09:54:16.882Z,13.17
2017-11-07T09:55:27.190Z,12.98
2017-11-07T09:56:37.490Z,12.88
2017-11-07T09:57:47.481Z,12.91
2017-11-07T09:58:57.781Z,13.08
2017-11-07T10:00:07.648Z,12.95
2017-11-07T10:01:18.033Z,13.01
2017-11-07T10:02:28.342Z,12.9
2017-11-07T10:03:38.659Z,13.24
2017-11-07T10:04:48.985Z,13.33
2017-11-07T10:05:59.284Z,13.28
2017-11-07T10:07:08.938Z,13.08
2017-11-07T10:08:18.592Z,13.23
2017-11-07T10:09:28.803Z,13.31
2017-11-07T10:10:38.461Z,13.36
2017-11-07T10:11:48.770Z,13.28
2017-11-07T10:12:58.743Z,13.12
2017-11-07T10:14:09.057Z,12.88
2017-11-07T10:15:19.066Z,12.87
2017-11-07T10:16:29.390Z,12.76
2017-11-07T10:17:38.729Z,12.8
2017-11-07T10:18:49.044Z,12.76
2017-11-07T10:19:59.360Z,12.68
2017-11-07T10:21:09.920Z,12.83
2017-11-07T10:22:20.221Z,12.78
2017-11-07T10:23:30.521Z,12.83
2017-11-07T10:24:40.517Z,12.9
2017-11-07T10:25:50.862Z,12.94
2017-11-07T10:27:00.845Z,12.98
2017-11-07T10:28:11.185Z,13.19
2017-11-07T10:29:21.168Z,13.46
2017-11-07T10:30:31.476Z,13.8
2017-11-07T10:31:41.806Z,13.78
2017-11-07T10:32:52.113Z,13.76
2017-11-07T10:34:02.233Z,13.95
2017-11-07T10:35:11.880Z,13.75
2017-11-07T10:36:21.875Z,13.7
2017-11-07T10:37:32.197Z,13.4
2017-11-07T10:38:42.820Z,13.26
2017-11-07T10:39:53.161Z,13.49
2017-11-07T10:41:03.499Z,13.78
2017-11-07T10:42:13.851Z,13.33
2017-11-07T10:43:24.149Z,13.08
2017-11-07T10:44:34.163Z,12.93
2017-11-07T10:45:44.485Z,12.76
2017-11-07T10:46:54.863Z,12.72
2017-11-07T10:48:05.201Z,12.39
2017-11-07T10:49:15.511Z,12.1
2017-11-07T10:50:25.531Z,11.78
2017-11-07T10:51:35.520Z,11.58
2017-11-07T10:52:45.853Z,11.7
2017-11-07T10:53:56.181Z,11.65
2017-11-07T10:55:06.488Z,11.58
2017-11-07T10:56:16.785Z,11.51
2017-11-07T10:57:27.375Z,11.3
2017-11-07T10:58:37.393Z,11.16
2017-11-07T10:59:47.419Z,11.1
2017-11-07T11:00:57.774Z,10.84
2017-11-07T11:02:08.107Z,10.76
2017-11-07T11:03:17.776Z,10.62
2017-11-07T11:04:28.092Z,10.51
2017-11-07T11:05:38.430Z,10.27
2017-11-07T11:06:48.755Z,10.18
2017-11-07T11:07:59.111Z,9.97
2017-11-07T11:09:09.445Z,9.84
2017-11-07T11:10:19.796Z,9.84
2017-11-07T11:11:30.151Z,9.73
2017-11-07T11:12:40.453Z,9.73
2017-11-07T11:13:50.814Z,9.72
2017-11-07T11:15:01.149Z,9.7
2017-11-07T11:16:11.723Z,9.84
2017-11-07T11:17:21.750Z,9.9
2017-11-07T11:18:32.077Z,9.82
2017-11-07T11:19:42.633Z,9.81
2017-11-07T11:20:52.939Z,9.82
2017-11-07T11:22:03.257Z,9.81
2017-11-07T11:23:13.567Z,9.84
2017-11-07T11:24:23.820Z,9.99
2017-11-07T11:25:33.850Z,10
2017-11-07T11:26:44.176Z,9.8
2017-11-07T11:27:54.501Z,9.73
2017-11-07T11:29:04.573Z,9.52
2017-11-07T11:30:15.132Z,9.4
2017-11-07T11:31:25.475Z,9.39
2017-11-07T11:32:35.792Z,9.39
2017-11-07T11:33:45.813Z,9.26
2017-11-07T11:34:56.209Z,9.24
2017-11-07T11:36:06.191Z,9.27
2017-11-07T11:37:16.582Z,9.29
2017-11-07T11:38:27.178Z,9.36
2017-11-07T11:39:37.505Z,9.36
2017-11-07T11:40:47.876Z,9.4
2017-11-07T11:41:58.223Z,9.47
2017-11-07T11:43:08.550Z,9.47
2017-11-07T11:44:18.216Z,9.54
2017-11-07T11:45:28.776Z,9.42
2017-11-07T11:46:39.301Z,9.44
2017-11-07T11:47:49.613Z,9.51
2017-11-07T11:48:59.940Z,9.49
2017-11-07T11:50:10.451Z,9.55
2017-11-07T11:51:20.759Z,9.58
2017-11-07T11:52:30.745Z,9.58
2017-11-07T11:53:41.076Z,9.62
2017-11-07T11:54:51.048Z,9.66
2017-11-07T11:56:01.349Z,9.69
2017-11-07T11:57:11.639Z,9.81
2017-11-07T11:58:21.942Z,9.72
2017-11-07T11:59:32.254Z,9.72
2017-11-07T12:00:41.601Z,9.76
2017-11-07T12:01:51.910Z,9.56
2017-11-07T12:03:01.877Z,9.62
2017-11-07T12:04:12.183Z,9.59
2017-11-07T12:05:22.156Z,9.52
2017-11-07T12:06:32.464Z,9.62
2017-11-07T12:07:42.762Z,9.59
2017-11-07T12:08:53.077Z,9.73
2017-11-07T12:10:03.373Z,9.73
2017-11-07T12:11:13.340Z,9.82
2017-11-07T12:12:23.323Z,9.81
2017-11-07T12:13:33.623Z,9.91
2017-11-07T12:14:43.592Z,9.92
2017-11-07T12:15:53.923Z,9.95
2017-11-07T12:17:04.231Z,9.97
2017-11-07T12:18:14.509Z,9.97
2017-11-07T12:19:24.836Z,10.05
2017-11-07T12:20:35.147Z,10.07
2017-11-07T12:21:45.127Z,10.1
2017-11-07T12:22:55.105Z,10.09
2017-11-07T12:24:05.088Z,10.18
2017-11-07T12:25:15.440Z,10.23
2017-11-07T12:26:25.778Z,10.31
2017-11-07T12:27:36.138Z,10.31
2017-11-07T12:28:46.445Z,10.23
2017-11-07T12:29:56.768Z,10.15
2017-11-07T12:31:07.111Z,10.12
2017-11-07T12:32:17.426Z,10.24
2017-11-07T12:33:27.743Z,10.12
2017-11-07T12:34:38.040Z,10.03
2017-11-07T12:35:48.027Z,10.09
2017-11-07T12:36:58.329Z,10.13
2017-11-07T12:38:08.312Z,10.06
2017-11-07T12:39:18.630Z,10.1
2017-11-07T12:40:28.952Z,10.05
2017-11-07T12:41:39.535Z,10.12
2017-11-07T12:42:49.859Z,10.21
2017-11-07T12:44:00.232Z,10.25
2017-11-07T12:45:10.550Z,10.33
2017-11-07T12:46:20.888Z,10.39
2017-11-07T12:47:31.197Z,10.38
2017-11-07T12:48:40.860Z,10.34
2017-11-07T12:49:51.188Z,10.34
2017-11-07T12:51:01.224Z,10.39
2017-11-07T12:52:11.633Z,10.39
2017-11-07T12:53:21.959Z,10.46
2017-11-07T12:54:32.271Z,10.53
2017-11-07T12:55:42.587Z,10.64
2017-11-07T12:56:52.247Z,10.67
2017-11-07T12:58:02.827Z,10.8
2017-11-07T12:59:12.812Z,10.68
2017-11-07T13:00:22.782Z,10.59
2017-11-07T13:01:33.100Z,10.49
2017-11-07T13:02:43.397Z,10.58
2017-11-07T13:03:53.701Z,10.61
2017-11-07T13:05:03.683Z,10.55
2017-11-07T13:06:13.644Z,10.49
2017-11-07T13:07:23.621Z,10.39
2017-11-07T13:08:33.619Z,10.42
2017-11-07T13:09:43.929Z,10.41
2017-11-07T13:10:54.234Z,10.38
2017-11-07T13:12:04.224Z,10.41
2017-11-07T13:13:14.522Z,10.31
2017-11-07T13:14:24.853Z,10.2
2017-11-07T13:15:35.150Z,10.23
2017-11-07T13:16:45.123Z,10.2
2017-11-07T13:17:55.447Z,10.07
2017-11-07T13:19:05.091Z,10.05
2017-11-07T13:20:15.072Z,9.99
2017-11-07T13:21:24.736Z,9.99
2017-11-07T13:22:35.055Z,9.94
2017-11-07T13:23:45.367Z,9.92
2017-11-07T13:24:55.673Z,9.91
2017-11-07T13:26:06.204Z,9.84
2017-11-07T13:27:15.836Z,9.82
2017-11-07T13:28:26.156Z,9.81
2017-11-07T13:29:36.720Z,9.8
2017-11-07T13:30:47.015Z,9.81
2017-11-07T13:31:57.341Z,9.69
2017-11-07T13:33:07.303Z,9.62
2017-11-07T13:34:17.598Z,9.54
2017-11-07T13:35:27.905Z,9.52
2017-11-07T13:36:38.213Z,9.45
2017-11-07T13:37:48.193Z,9.47
2017-11-07T13:38:58.477Z,9.42
2017-11-07T13:40:08.461Z,9.34
2017-11-07T13:41:18.435Z,9.27
2017-11-07T13:42:28.424Z,9.4
2017-11-07T13:43:38.741Z,9.37
2017-11-07T13:44:49.101Z,9.36
2017-11-07T13:45:59.090Z,9.3
2017-11-07T13:47:09.383Z,9.31
2017-11-07T13:48:19.381Z,9.37
2017-11-07T13:49:29.706Z,9.4
2017-11-07T13:50:40.021Z,9.45
2017-11-07T13:51:50.321Z,9.47
2017-11-07T13:53:00.285Z,9.52
2017-11-07T13:54:10.258Z,9.39
2017-11-07T13:55:20.560Z,9.4
2017-11-07T13:56:30.895Z,9.55
2017-11-07T13:57:41.185Z,9.44
2017-11-07T13:58:51.492Z,9.51
2017-11-07T14:00:01.795Z,9.47
2017-11-07T14:01:12.117Z,9.42
2017-11-07T14:02:22.437Z,9.45
2017-11-07T14:03:32.758Z,9.44
2017-11-07T14:04:43.064Z,9.44
2017-11-07T14:05:53.408Z,9.49
2017-11-07T14:07:03.718Z,9.49
2017-11-07T14:08:13.930Z,9.44
2017-11-07T14:09:24.248Z,9.42
2017-11-07T14:10:34.551Z,9.47
2017-11-07T14:11:44.858Z,9.24
2017-11-07T14:12:54.855Z,9.26
2017-11-07T14:14:05.157Z,9.24
2017-11-07T14:15:15.473Z,9.16
2017-11-07T14:16:25.441Z,9.27
2017-11-07T14:17:35.982Z,9.26
2017-11-07T14:18:46.292Z,9.26
2017-11-07T14:19:56.333Z,9.24
2017-11-07T14:21:06.678Z,9.26
2017-11-07T14:22:16.666Z,9.22
2017-11-07T14:23:26.980Z,9.22
2017-11-07T14:24:36.953Z,9.3
2017-11-07T14:25:46.923Z,9.27
2017-11-07T14:26:56.911Z,9.22
2017-11-07T14:28:07.227Z,9.24
2017-11-07T14:29:17.515Z,9.18
2017-11-07T14:30:27.824Z,9.19
2017-11-07T14:31:37.814Z,9.26
2017-11-07T14:32:47.801Z,9.19
2017-11-07T14:33:57.846Z,9.21
2017-11-07T14:35:08.160Z,9.22
2017-11-07T14:36:18.168Z,9.24
2017-11-07T14:37:28.130Z,9.29
2017-11-07T14:38:38.422Z,9.22
2017-11-07T14:39:48.718Z,9.19
2017-11-07T14:40:58.380Z,9.16
2017-11-07T14:42:08.350Z,9.15
2017-11-07T14:43:18.326Z,9.13
2017-11-07T14:44:28.311Z,9.11
2017-11-07T14:45:38.615Z,9.09
2017-11-07T14:46:48.281Z,9.05
2017-11-07T14:47:58.603Z,9.05
2017-11-07T14:49:08.977Z,9.05
2017-11-07T14:50:19.532Z,9.08
2017-11-07T14:51:29.854Z,9.02
2017-11-07T14:52:40.162Z,9.08
2017-11-07T14:53:50.463Z,9.02
2017-11-07T14:55:00.791Z,9.08
2017-11-07T14:56:11.117Z,8.97
2017-11-07T14:57:21.411Z,8.96
2017-11-07T14:58:31.388Z,8.86
2017-11-07T14:59:41.675Z,8.89
2017-11-07T15:00:51.652Z,8.93
2017-11-07T15:02:01.625Z,8.89
2017-11-07T15:03:11.600Z,8.96
2017-11-07T15:04:21.579Z,9
2017-11-07T15:05:31.903Z,8.95
2017-11-07T15:06:42.204Z,8.96
2017-11-07T15:07:52.508Z,8.9
2017-11-07T15:09:02.510Z,8.93
2017-11-07T15:10:12.816Z,8.93
2017-11-07T15:11:23.104Z,8.97
2017-11-07T15:12:33.401Z,8.93
2017-11-07T15:13:43.701Z,8.82
2017-11-07T15:14:53.339Z,8.92
2017-11-07T15:16:03.326Z,8.92
2017-11-07T15:17:13.621Z,8.97
2017-11-07T15:18:23.924Z,8.89
2017-11-07T15:19:34.251Z,8.82
2017-11-07T15:20:44.538Z,8.86
2017-11-07T15:21:54.524Z,8.77
2017-11-07T15:23:04.840Z,8.75
2017-11-07T15:24:15.134Z,8.81
2017-11-07T15:25:25.440Z,8.71
2017-11-07T15:26:35.083Z,8.75
2017-11-07T15:27:45.391Z,8.75
2017-11-07T15:28:55.686Z,8.82
2017-11-07T15:30:05.658Z,8.79